ADDS METAR Data INFO
IDs: Format: Raw Decoded Include TAF

Data at: 0935 UTC 17 Oct 2017

PAWG 170830Z AUTO 11003KT 10SM SCT003 BKN060 04/04 A2961 RMK AO2 TSNO
PAWG 170703Z AUTO 00000KT 10SM BKN003 OVC047 05/04 A2961 RMK AO2 TSNO
PAWG 170656Z AUTO 00000KT 10SM FEW080 04/04 A2961 RMK AO2 SLP026 T00440039 TSNO
PAWG 170556Z 11003KT 10SM FEW080 05/04 A2961 RMK AO2 SLP026 60001 T00500044 10067 20050 50000
PAWG 170456Z 06003KT 10SM FEW050 SCT070 05/04 A2961 RMK (BS)
PAWG 170356Z 10004KT 10SM FEW050 SCT070 06/04 A2961 RMK AO2 SLP028 T00560044
PAWG 170256Z 11006KT 10SM SCT035 BKN050 BKN060 06/04 A2961 RMK AO2 SLP026 60001 T00560044 58003
PAWG 170156Z 11006KT 10SM FEW008 SCT035 BKN060 06/04 A2961 RMK (BS)
PAWG 170056Z 12006KT 10SM FEW008 SCT035 BKN050 06/04 A2962 RMK (BS)
PAWG 162356Z 10007KT 10SM FEW008 BKN035 BKN050 06/05 A2962 RMK AO2 RAE54 SLP029 P0000 60024 T00610050 10061 20056 51006
PAWG 162256Z 10005KT 10SM -RA FEW005 BKN030 OVC050 06/06 A2962 RMK (BS)
PAWG 162156Z 00000KT 9SM -RA FEW008 BKN030 OVC050 06/05 A2961 RMK AO2 RAB12 SLP028 P0006 T00610050
PAWG 162056Z 09005KT 10SM FEW005 BKN030 OVC050 06/04 A2960 RMK AO2 RAE50 SLP023 P0000 60010 T00610044 53001
PAWG 161955Z 09005KT 10SM -RA FEW005 BKN030 OVC050 06/04 A2959 RMK (KH)
PAWG 161856Z 08006KT 10SM -RA FEW005 BKN030 OVC050 06/04 A2960 RMK AO2 SLP022 P0007 T00560044
PAWG 161756Z 10007KT 070V140 10SM -RA FEW010 BKN030 OVC050 06/04 A2959 RMK AO2 SLP022 P0002 60008 T00610039 10072 20056 56008
PAWG 161655Z 09009KT 10SM -RA FEW010 BKN030 OVC050 06/04 A2960 RMK (KH)
PAWG 161555Z 07009KT 10SM -RA FEW010 BKN030 OVC050 06/04 A2960 RMK (KH)
PAWG 161455Z 07011KT 10SM -RA FEW005 BKN020 OVC035 06/04 A2962 RMK (KH)
PAWG 161355Z 08011KT 10SM -RA BKN020 OVC034 07/05 A2963 RMK (KH)
PAWG 161256Z AUTO 08012KT 10SM -RA BKN030 OVC035 07/05 A2967 RMK AO2 SLP047 P0001 T00670050 TSNO
PAWG 160756Z AUTO 09006KT 10SM FEW033 SCT042 08/06 A2979 RMK AO2 RAE0658B22E34 SLP090 P0000 T00780061 TSNO
PAWG 160556Z 15004KT 10SM SCT060 08/06 A2980 RMK (BS)
PAWG 160456Z 12004KT 10SM SCT040 BKN060 09/05 A2978 RMK (BS)
PAWG 160356Z 17004KT 10SM SCT040 BKN055 09/06 A2977 RMK AO2 SLP082 T00890056
PAWG 160256Z 16005KT 10SM SCT040 BKN050 BKN055 09/06 A2976 RMK AO2 SLP078 60000 T00940056 51022
PAWG 160156Z 16007KT 10SM SCT030 BKN045 BKN055 10/05 A2974 RMK AO2 SLP071 T01000050
PAWG 160056Z 00000KT 10SM FEW005 SCT030 BKN045 10/07 A2972 RMK AO2 RAE00 SLP064 P0000 T01000067
PAWG 152356Z 15006KT 10SM FEW005 SCT030 BKN045 09/07 A2970 RMK (BS)
PAWG 152256Z 14006KT 7SM RA FEW005 BKN020 OVC040 08/07 A2968 RMK (BS)
PAWG 152156Z 10011KT 8SM -RA FEW005 BKN020 OVC045 08/07 A2968 RMK (BS)